createdAt,value
2023-04-13T00:00:46.957Z,20.22
2023-04-13T00:01:47.029Z,20.17
2023-04-13T00:02:47.140Z,20.16
2023-04-13T00:03:47.533Z,20.16
2023-04-13T00:04:47.079Z,20.19
2023-04-13T00:05:47.199Z,20.15
2023-04-13T00:06:47.129Z,20.10
2023-04-13T00:07:47.157Z,20.16
2023-04-13T00:08:47.186Z,20.13
2023-04-13T00:09:47.433Z,20.16
2023-04-13T00:10:47.542Z,20.13
2023-04-13T00:11:47.271Z,20.16
2023-04-13T00:12:47.301Z,20.16
2023-04-13T00:13:47.366Z,20.17
2023-04-13T00:15:47.413Z,20.10
2023-04-13T00:16:47.487Z,20.16
2023-04-13T00:17:47.778Z,20.15
2023-04-13T00:18:47.481Z,20.19
2023-04-13T00:19:47.504Z,20.17
2023-04-13T00:20:47.536Z,20.15
2023-04-13T00:21:47.568Z,20.20
2023-04-13T00:22:47.600Z,20.23
2023-04-13T00:23:47.626Z,20.20
2023-04-13T00:24:47.988Z,20.20
2023-04-13T00:25:47.685Z,20.17
2023-04-13T00:26:47.711Z,20.20
2023-04-13T00:27:47.743Z,20.16
2023-04-13T00:28:47.871Z,20.13
2023-04-13T00:29:47.801Z,20.16
2023-04-13T00:30:47.857Z,20.19
2023-04-13T00:31:48.240Z,20.13
2023-04-13T00:33:47.917Z,20.13
2023-04-13T00:34:47.948Z,20.17
2023-04-13T00:36:48.024Z,20.19
2023-04-13T00:37:48.034Z,20.13
2023-04-13T00:38:48.371Z,20.17
2023-04-13T00:39:48.096Z,20.15
2023-04-13T00:40:48.119Z,20.15
2023-04-13T00:41:48.153Z,20.15
2023-04-13T00:42:48.206Z,20.16
2023-04-13T00:43:48.213Z,20.12
2023-04-13T00:44:48.237Z,20.13
2023-04-13T00:45:48.625Z,20.16
2023-04-13T00:46:48.335Z,20.15
2023-04-13T00:47:48.365Z,20.19
2023-04-13T00:48:48.359Z,20.19
2023-04-13T00:49:48.385Z,20.15
2023-04-13T00:50:48.416Z,20.15
2023-04-13T00:51:48.442Z,20.19
2023-04-13T00:52:48.914Z,20.15
2023-04-13T00:53:48.514Z,20.15
2023-04-13T00:54:48.547Z,20.17
2023-04-13T00:55:48.591Z,20.15
2023-04-13T00:56:48.619Z,20.19
2023-04-13T00:57:48.621Z,20.19
2023-04-13T00:58:48.650Z,20.12
2023-04-13T00:59:49.026Z,20.04
2023-04-13T01:00:48.707Z,20.15
2023-04-13T01:01:48.822Z,20.04
2023-04-13T01:02:48.893Z,20.12
2023-04-13T01:03:48.815Z,20.08
2023-04-13T01:04:48.859Z,20.16
2023-04-13T01:05:48.858Z,20.10
2023-04-13T01:06:49.197Z,20.15
2023-04-13T01:07:48.911Z,20.10
2023-04-13T01:08:48.944Z,20.05
2023-04-13T01:09:48.973Z,20.13
2023-04-13T01:10:49.002Z,20.10
2023-04-13T01:11:49.033Z,20.00
2023-04-13T01:12:49.053Z,20.04
2023-04-13T01:13:49.388Z,20.04
2023-04-13T01:14:49.120Z,20.10
2023-04-13T01:15:49.191Z,20.15
2023-04-13T01:16:49.187Z,20.02
2023-04-13T01:17:49.238Z,20.12
2023-04-13T01:18:49.250Z,20.15
2023-04-13T01:19:49.278Z,20.05
2023-04-13T01:20:49.598Z,20.04
2023-04-13T01:21:49.334Z,19.98
2023-04-13T01:22:49.343Z,20.07
2023-04-13T01:23:49.375Z,20.04
2023-04-13T01:24:49.422Z,20.13
2023-04-13T01:25:49.440Z,20.01
2023-04-13T01:26:49.765Z,20.01
2023-04-13T01:27:49.514Z,20.12
2023-04-13T01:28:49.533Z,20.13
2023-04-13T01:29:49.562Z,20.01
2023-04-13T01:30:49.594Z,20.12
2023-04-13T01:31:49.675Z,20.12
2023-04-13T01:32:49.972Z,20.10
2023-04-13T01:33:49.668Z,20.02
2023-04-13T01:34:49.701Z,20.04
2023-04-13T01:35:49.745Z,20.05
2023-04-13T01:36:49.754Z,20.04
2023-04-13T01:37:49.804Z,20.02
2023-04-13T01:38:50.132Z,20.16
2023-04-13T01:40:49.875Z,20.05
2023-04-13T01:41:49.901Z,20.15
2023-04-13T01:42:49.931Z,20.10
2023-04-13T01:43:49.960Z,20.13
2023-04-13T01:44:49.992Z,20.04
2023-04-13T01:45:50.316Z,20.12
2023-04-13T01:46:50.080Z,20.13
2023-04-13T01:47:50.130Z,20.10
2023-04-13T01:48:50.120Z,20.02
2023-04-13T01:49:50.131Z,20.10
2023-04-13T01:50:50.165Z,20.15
2023-04-13T01:51:50.225Z,20.05
2023-04-13T01:52:50.521Z,20.02
2023-04-13T01:53:50.248Z,20.05
2023-04-13T01:54:50.289Z,20.07
2023-04-13T01:55:50.321Z,20.02
2023-04-13T01:56:50.348Z,20.07
2023-04-13T01:57:50.373Z,20.05
2023-04-13T01:58:50.412Z,20.02
2023-04-13T01:59:50.738Z,20.04
2023-04-13T02:00:50.526Z,20.07
2023-04-13T02:01:50.579Z,20.07
2023-04-13T02:02:50.790Z,20.08
2023-04-13T02:03:50.582Z,20.02
2023-04-13T02:06:50.939Z,20.07
2023-04-13T02:07:50.680Z,20.07
2023-04-13T02:08:52.527Z,20.04
2023-04-13T02:09:50.733Z,20.07
2023-04-13T02:11:50.775Z,20.02
2023-04-13T02:12:50.810Z,20.13
2023-04-13T02:13:51.136Z,20.07
2023-04-13T02:14:50.864Z,20.13
2023-04-13T02:15:50.897Z,20.04
2023-04-13T02:16:50.993Z,20.02
2023-04-13T02:17:50.971Z,20.08
2023-04-13T02:18:50.980Z,20.02
2023-04-13T02:19:51.010Z,20.07
2023-04-13T02:20:51.356Z,20.01
2023-04-13T02:21:51.071Z,20.04
2023-04-13T02:22:51.100Z,20.07
2023-04-13T02:23:51.148Z,20.04
2023-04-13T02:24:51.170Z,20.05
2023-04-13T02:25:51.196Z,20.05
2023-04-13T02:26:51.222Z,20.02
2023-04-13T02:27:51.543Z,20.02
2023-04-13T02:28:51.363Z,19.92
2023-04-13T02:29:51.311Z,20.10
2023-04-13T02:31:51.394Z,19.95
2023-04-13T02:32:51.411Z,19.94
2023-04-13T02:33:51.427Z,19.90
2023-04-13T02:34:51.750Z,20.02
2023-04-13T02:37:51.538Z,19.92
2023-04-13T02:38:51.568Z,20.01
2023-04-13T02:39:51.612Z,20.00
2023-04-13T02:40:51.620Z,20.05
2023-04-13T02:41:51.951Z,20.02
2023-04-13T02:42:51.729Z,20.00
2023-04-13T02:43:51.713Z,20.02
2023-04-13T02:44:51.734Z,20.00
2023-04-13T02:45:51.819Z,20.04
2023-04-13T02:46:51.842Z,19.94
2023-04-13T02:47:51.866Z,19.94
2023-04-13T02:48:52.156Z,19.92
2023-04-13T02:49:51.888Z,19.94
2023-04-13T02:50:51.913Z,19.94
2023-04-13T02:51:51.947Z,19.94
2023-04-13T02:53:52.001Z,19.92
2023-04-13T02:54:52.030Z,19.95
2023-04-13T02:55:52.393Z,19.94
2023-04-13T02:56:52.090Z,19.98
2023-04-13T02:57:52.157Z,19.94
2023-04-13T02:58:52.144Z,19.92
2023-04-13T02:59:52.172Z,19.92
2023-04-13T03:00:52.251Z,19.92
2023-04-13T03:01:52.450Z,19.90
2023-04-13T03:02:52.717Z,19.89
2023-04-13T03:03:52.291Z,19.98
2023-04-13T03:04:52.385Z,19.89
2023-04-13T03:05:52.344Z,19.92
2023-04-13T03:06:52.383Z,19.94
2023-04-13T03:07:52.416Z,19.90
2023-04-13T03:08:52.438Z,19.94
2023-04-13T03:10:52.500Z,19.95
2023-04-13T03:11:52.567Z,19.94
2023-04-13T03:12:52.561Z,19.92
2023-04-13T03:13:52.580Z,19.90
2023-04-13T03:14:52.625Z,19.98
2023-04-13T03:15:52.640Z,19.94
2023-04-13T03:16:52.991Z,19.90
2023-04-13T03:17:52.751Z,19.87
2023-04-13T03:19:52.754Z,19.94
2023-04-13T03:20:52.791Z,19.90
2023-04-13T03:21:52.818Z,19.95
2023-04-13T03:22:53.154Z,19.87
2023-04-13T03:23:52.878Z,19.95
2023-04-13T03:24:52.901Z,19.90
2023-04-13T03:25:52.940Z,19.94
2023-04-13T03:26:52.970Z,19.90
2023-04-13T03:27:53.078Z,19.98
2023-04-13T03:28:53.325Z,19.95
2023-04-13T03:29:53.060Z,19.87
2023-04-13T03:30:53.139Z,19.94
2023-04-13T03:31:53.126Z,19.90
2023-04-13T03:32:53.202Z,19.94
2023-04-13T03:33:53.175Z,19.87
2023-04-13T03:34:53.498Z,19.90
2023-04-13T03:35:53.224Z,19.90
2023-04-13T03:36:53.260Z,19.94
2023-04-13T03:37:53.291Z,19.92
2023-04-13T03:38:53.327Z,19.95
2023-04-13T03:39:53.350Z,19.87
2023-04-13T03:40:53.384Z,19.90
2023-04-13T03:42:53.793Z,19.95
2023-04-13T03:44:53.533Z,19.95
2023-04-13T03:45:53.544Z,19.95
2023-04-13T03:46:53.555Z,19.89
2023-04-13T03:47:53.630Z,19.86
2023-04-13T03:48:53.925Z,19.86
2023-04-13T03:49:53.644Z,19.97
2023-04-13T03:50:53.698Z,19.92
2023-04-13T03:51:53.699Z,19.95
2023-04-13T03:52:53.723Z,19.89
2023-04-13T03:53:53.747Z,19.92
2023-04-13T03:54:53.859Z,19.92
2023-04-13T03:55:54.108Z,19.92
2023-04-13T03:56:53.846Z,19.86
2023-04-13T03:57:53.904Z,19.94
2023-04-13T03:58:53.906Z,19.97
2023-04-13T03:59:53.934Z,19.89
2023-04-13T04:00:53.973Z,19.89
2023-04-13T04:01:54.015Z,19.90
2023-04-13T04:02:54.474Z,19.92
2023-04-13T04:03:54.111Z,19.89
2023-04-13T04:04:54.161Z,19.90
2023-04-13T04:05:54.114Z,19.89
2023-04-13T04:06:54.144Z,19.87
2023-04-13T04:07:54.153Z,19.87
2023-04-13T04:09:54.222Z,19.92
2023-04-13T04:10:54.593Z,19.89
2023-04-13T04:11:54.275Z,19.92
2023-04-13T04:12:54.300Z,19.87
2023-04-13T04:13:54.337Z,19.92
2023-04-13T04:14:54.357Z,19.82
2023-04-13T04:15:54.411Z,19.89
2023-04-13T04:16:54.469Z,19.83
2023-04-13T04:18:54.784Z,19.89
2023-04-13T04:19:54.509Z,19.90
2023-04-13T04:20:54.539Z,19.86
2023-04-13T04:21:54.565Z,19.85
2023-04-13T04:22:54.608Z,19.85
2023-04-13T04:24:54.652Z,19.86
2023-04-13T04:25:54.984Z,19.75
2023-04-13T04:26:54.725Z,19.79
2023-04-13T04:27:54.744Z,19.83
2023-04-13T04:28:54.792Z,19.82
2023-04-13T04:29:54.798Z,19.83
2023-04-13T04:30:54.880Z,19.79
2023-04-13T04:31:54.869Z,19.79
2023-04-13T04:32:55.326Z,19.89
2023-04-13T04:34:54.967Z,19.82
2023-04-13T04:35:55.000Z,19.85
2023-04-13T04:36:57.014Z,19.83
2023-04-13T04:37:55.032Z,19.89
2023-04-13T04:38:55.055Z,19.80
2023-04-13T04:39:55.382Z,19.82
2023-04-13T04:40:55.114Z,19.83
2023-04-13T04:41:55.217Z,19.82
2023-04-13T04:42:55.171Z,19.94
2023-04-13T04:43:55.203Z,19.82
2023-04-13T04:44:55.238Z,19.79
2023-04-13T04:45:55.275Z,19.89
2023-04-13T04:46:55.587Z,19.82
2023-04-13T04:47:55.378Z,19.92
2023-04-13T04:48:55.371Z,19.82
2023-04-13T04:49:55.373Z,19.94
2023-04-13T04:50:55.403Z,19.90
2023-04-13T04:51:55.431Z,19.83
2023-04-13T04:52:55.471Z,19.85
2023-04-13T04:53:56.991Z,19.89
2023-04-13T04:54:55.528Z,19.86
2023-04-13T04:56:55.588Z,19.85
2023-04-13T04:57:55.602Z,19.83
2023-04-13T04:58:55.640Z,19.85
2023-04-13T04:59:55.665Z,19.90
2023-04-13T05:00:56.050Z,19.85
2023-04-13T05:01:55.730Z,19.86
2023-04-13T05:02:55.891Z,19.80
2023-04-13T05:03:55.784Z,19.79
2023-04-13T05:04:55.902Z,19.83
2023-04-13T05:05:55.859Z,19.82
2023-04-13T05:06:55.870Z,19.78
2023-04-13T05:08:56.230Z,19.83
2023-04-13T05:09:55.967Z,19.80
2023-04-13T05:10:55.998Z,19.86
2023-04-13T05:11:56.062Z,19.79
2023-04-13T05:12:56.043Z,19.80
2023-04-13T05:13:56.105Z,19.79
2023-04-13T05:14:56.105Z,19.86
2023-04-13T05:15:56.468Z,19.85
2023-04-13T05:16:56.259Z,19.82
2023-04-13T05:17:56.301Z,19.76
2023-04-13T05:18:56.245Z,19.86
2023-04-13T05:19:56.254Z,19.79
2023-04-13T05:25:56.761Z,19.85
2023-04-13T05:26:56.446Z,19.75
2023-04-13T05:27:56.475Z,19.85
2023-04-13T05:28:56.704Z,19.82
2023-04-13T05:29:56.547Z,19.75
2023-04-13T05:30:56.567Z,19.79
2023-04-13T05:31:56.973Z,19.80
2023-04-13T05:32:56.644Z,19.78
2023-04-13T05:33:56.656Z,19.82
2023-04-13T05:34:56.679Z,19.83
2023-04-13T05:35:56.715Z,19.78
2023-04-13T05:36:56.741Z,19.76
2023-04-13T05:37:57.306Z,19.80
2023-04-13T05:38:56.961Z,19.78
2023-04-13T05:39:56.829Z,19.78
2023-04-13T05:40:56.850Z,19.78
2023-04-13T05:41:56.903Z,19.78
2023-04-13T05:42:56.921Z,19.85
2023-04-13T05:43:56.941Z,19.82
2023-04-13T05:44:56.976Z,19.82
2023-04-13T05:45:57.024Z,19.76
2023-04-13T05:46:57.048Z,19.79
2023-04-13T05:47:57.100Z,19.79
2023-04-13T05:48:57.240Z,19.80
2023-04-13T05:49:57.118Z,19.82
2023-04-13T05:50:57.479Z,19.80
2023-04-13T05:51:57.230Z,19.82
2023-04-13T05:52:57.318Z,19.75
2023-04-13T05:53:57.547Z,19.79
2023-04-13T05:54:57.256Z,19.80
2023-04-13T05:55:57.303Z,19.78
2023-04-13T05:56:57.318Z,19.79
2023-04-13T05:58:57.928Z,19.75
2023-04-13T05:59:57.396Z,19.82
2023-04-13T06:00:57.435Z,19.80
2023-04-13T06:02:57.866Z,19.72
2023-04-13T06:03:57.682Z,19.82
2023-04-13T06:04:57.700Z,19.80
2023-04-13T06:05:57.874Z,19.72
2023-04-13T06:06:57.880Z,19.68
2023-04-13T06:07:57.881Z,19.80
2023-04-13T06:08:58.346Z,19.80
2023-04-13T06:09:57.954Z,19.65
2023-04-13T06:10:58.036Z,19.75
2023-04-13T06:11:57.741Z,19.71
2023-04-13T06:12:58.070Z,19.75
2023-04-13T06:13:59.985Z,19.75
2023-04-13T06:14:57.847Z,19.79
2023-04-13T06:15:57.861Z,19.80
2023-04-13T06:16:57.913Z,19.78
2023-04-13T06:17:58.015Z,19.82
2023-04-13T06:18:58.153Z,19.80
2023-04-13T06:19:58.275Z,19.78
2023-04-13T06:20:57.999Z,19.82
2023-04-13T06:21:58.030Z,19.76
2023-04-13T06:22:58.057Z,19.79
2023-04-13T06:23:58.093Z,19.83
2023-04-13T06:24:58.117Z,19.78
2023-04-13T06:25:58.162Z,19.78
2023-04-13T06:26:58.478Z,19.78
2023-04-13T06:27:58.224Z,19.80
2023-04-13T06:28:58.688Z,19.85
2023-04-13T06:29:58.272Z,19.80
2023-04-13T06:30:58.357Z,19.82
2023-04-13T06:31:58.338Z,19.79
2023-04-13T06:32:58.406Z,19.80
2023-04-13T06:33:58.690Z,19.83
2023-04-13T06:35:58.448Z,19.80
2023-04-13T06:36:58.484Z,19.90
2023-04-13T06:37:58.502Z,19.87
2023-04-13T06:38:58.726Z,19.90
2023-04-13T06:39:58.565Z,19.89
2023-04-13T06:40:58.985Z,19.90
2023-04-13T06:42:58.653Z,19.92
2023-04-13T06:43:58.677Z,19.90
2023-04-13T06:47:58.964Z,19.92
2023-04-13T06:48:59.027Z,19.92
2023-04-13T06:49:58.838Z,19.98
2023-04-13T06:50:58.869Z,19.92
2023-04-13T06:51:58.898Z,20.05
2023-04-13T06:53:00.580Z,20.08
2023-04-13T06:53:58.956Z,20.02
2023-04-13T06:54:58.989Z,20.04
2023-04-13T06:55:59.018Z,20.04
2023-04-13T06:56:59.055Z,20.05
2023-04-13T06:57:59.081Z,20.04
2023-04-13T06:59:01.554Z,20.05
2023-04-13T06:59:59.143Z,20.04
2023-04-13T07:00:59.253Z,20.01
2023-04-13T07:01:59.315Z,20.04
2023-04-13T07:02:59.518Z,20.05
2023-04-13T07:03:59.431Z,20.05
2023-04-13T07:04:59.682Z,20.19
2023-04-13T07:05:59.304Z,20.17
2023-04-13T07:06:59.335Z,20.17
2023-04-13T07:07:59.369Z,20.20
2023-04-13T07:08:59.589Z,20.19
2023-04-13T07:10:00.470Z,20.17
2023-04-13T07:10:59.478Z,20.17
2023-04-13T07:12:59.533Z,20.17
2023-04-13T07:13:59.544Z,20.12
2023-04-13T07:14:59.574Z,20.10
2023-04-13T07:15:59.674Z,20.23
2023-04-13T07:16:59.629Z,20.13
2023-04-13T07:17:59.994Z,20.19
2023-04-13T07:18:59.877Z,20.22
2023-04-13T07:19:59.846Z,20.20
2023-04-13T07:20:59.751Z,20.23
2023-04-13T07:21:59.770Z,20.22
2023-04-13T07:22:59.802Z,20.25
2023-04-13T07:23:59.836Z,20.19
2023-04-13T07:25:00.191Z,20.22
2023-04-13T07:26:59.938Z,20.37
2023-04-13T07:27:59.957Z,20.25
2023-04-13T07:29:00.146Z,20.30
2023-04-13T07:30:00.011Z,20.31
2023-04-13T07:31:00.135Z,20.33
2023-04-13T07:32:00.698Z,20.25
2023-04-13T07:33:00.266Z,20.25
2023-04-13T07:34:00.151Z,20.30
2023-04-13T07:35:00.154Z,20.33
2023-04-13T07:36:00.264Z,20.37
2023-04-13T07:37:00.219Z,20.33
2023-04-13T07:38:00.236Z,20.30
2023-04-13T07:39:00.842Z,20.30
2023-04-13T07:40:00.302Z,20.27
2023-04-13T07:41:00.329Z,20.34
2023-04-13T07:42:00.368Z,20.26
2023-04-13T07:43:00.398Z,20.31
2023-04-13T07:46:00.775Z,20.33
2023-04-13T07:47:00.588Z,20.31
2023-04-13T07:48:00.629Z,20.30
2023-04-13T07:49:00.845Z,20.25
2023-04-13T07:50:00.600Z,20.31
2023-04-13T07:51:00.621Z,20.34
2023-04-13T07:52:00.730Z,20.31
2023-04-13T07:53:00.989Z,20.34
2023-04-13T07:54:00.709Z,20.30
2023-04-13T07:55:00.847Z,20.30
2023-04-13T07:56:00.777Z,20.25
2023-04-13T07:57:00.797Z,20.31
2023-04-13T07:58:00.883Z,20.35
2023-04-13T07:59:01.563Z,20.34
2023-04-13T08:00:00.884Z,20.37
2023-04-13T08:01:00.999Z,20.35
2023-04-13T08:02:00.953Z,20.35
2023-04-13T08:03:01.183Z,20.37
2023-04-13T08:04:01.165Z,20.27
2023-04-13T08:05:01.612Z,20.37
2023-04-13T08:06:01.085Z,20.37
2023-04-13T08:07:01.089Z,20.33
2023-04-13T08:08:01.141Z,20.33
2023-04-13T08:09:01.246Z,20.37
2023-04-13T08:10:01.176Z,20.33
2023-04-13T08:11:01.504Z,20.33
2023-04-13T08:12:01.239Z,20.38
2023-04-13T08:13:01.266Z,20.33
2023-04-13T08:14:01.450Z,20.30
2023-04-13T08:16:01.380Z,20.31
2023-04-13T08:17:03.677Z,20.25
2023-04-13T08:18:01.790Z,20.25
2023-04-13T08:19:01.534Z,20.25
2023-04-13T08:20:01.475Z,20.25
2023-04-13T08:21:01.652Z,20.27
2023-04-13T08:22:01.626Z,20.16
2023-04-13T08:23:01.565Z,20.15
2023-04-13T08:24:01.698Z,20.17
2023-04-13T08:25:01.937Z,20.16
2023-04-13T08:26:01.677Z,20.15
2023-04-13T08:27:01.684Z,20.12
2023-04-13T08:28:01.710Z,20.13
2023-04-13T08:29:01.927Z,20.13
2023-04-13T08:30:01.952Z,20.16
2023-04-13T08:33:01.908Z,20.17
2023-04-13T08:34:02.512Z,20.16
2023-04-13T08:35:01.915Z,20.17
2023-04-13T08:36:01.988Z,20.17
2023-04-13T08:37:01.996Z,20.20
2023-04-13T08:38:02.400Z,20.13
2023-04-13T08:39:02.339Z,20.16
2023-04-13T08:40:02.096Z,20.19
2023-04-13T08:41:02.117Z,20.13
2023-04-13T08:42:02.126Z,20.16
2023-04-13T08:43:02.156Z,20.22
2023-04-13T08:44:02.180Z,20.13
2023-04-13T08:45:02.288Z,20.15
2023-04-13T08:46:02.602Z,20.17
2023-04-13T08:47:02.277Z,20.20
2023-04-13T08:48:02.675Z,20.13
2023-04-13T08:49:02.332Z,20.15
2023-04-13T08:50:02.354Z,20.20
2023-04-13T08:51:02.384Z,20.17
2023-04-13T08:52:02.412Z,20.15
2023-04-13T08:53:02.700Z,20.17
2023-04-13T08:54:02.470Z,20.17
2023-04-13T08:55:02.506Z,20.12
2023-04-13T08:56:02.553Z,20.15
2023-04-13T08:57:02.561Z,20.16
2023-04-13T08:58:02.585Z,20.13
2023-04-13T08:59:02.724Z,20.16
2023-04-13T09:00:02.986Z,20.16
2023-04-13T09:01:02.716Z,20.16
2023-04-13T09:02:02.826Z,20.20
2023-04-13T09:03:05.344Z,20.16
2023-04-13T09:04:02.969Z,20.10
2023-04-13T09:05:02.862Z,20.12
2023-04-13T09:07:03.156Z,20.12
2023-04-13T09:08:02.885Z,20.08
2023-04-13T09:09:02.909Z,20.15
2023-04-13T09:10:02.938Z,20.04
2023-04-13T09:11:03.112Z,20.15
2023-04-13T09:12:03.114Z,20.07
2023-04-13T09:13:03.059Z,20.13
2023-04-13T09:14:03.367Z,20.16
2023-04-13T09:15:03.107Z,20.07
2023-04-13T09:17:05.160Z,20.10
2023-04-13T09:18:03.213Z,20.08
2023-04-13T09:19:03.204Z,20.15
2023-04-13T09:20:03.231Z,20.13
2023-04-13T09:21:03.579Z,20.10
2023-04-13T09:22:03.310Z,20.15
2023-04-13T09:23:04.919Z,20.10
2023-04-13T09:24:03.355Z,20.13
2023-04-13T09:25:03.413Z,20.15
2023-04-13T09:26:03.411Z,20.16
2023-04-13T09:27:03.445Z,20.15
2023-04-13T09:28:03.786Z,20.13
2023-04-13T09:29:03.495Z,20.13
2023-04-13T09:30:03.553Z,20.15
2023-04-13T09:31:03.637Z,20.16
2023-04-13T09:32:03.584Z,20.16
2023-04-13T09:33:03.719Z,20.17
2023-04-13T09:34:03.651Z,20.19
2023-04-13T09:35:03.982Z,20.20
2023-04-13T09:36:03.708Z,20.31
2023-04-13T09:37:03.735Z,20.30
2023-04-13T09:38:03.764Z,20.38
2023-04-13T09:39:03.943Z,20.40
2023-04-13T09:40:03.825Z,20.40
2023-04-13T09:41:03.855Z,20.44
2023-04-13T09:42:04.179Z,20.41
2023-04-13T09:43:03.928Z,20.50
2023-04-13T09:44:04.001Z,20.42
2023-04-13T09:45:03.975Z,20.44
2023-04-13T09:46:04.043Z,20.50
2023-04-13T09:47:04.027Z,20.53
2023-04-13T09:48:04.083Z,20.53
2023-04-13T09:49:04.401Z,20.58
2023-04-13T09:50:04.121Z,20.57
2023-04-13T09:51:04.154Z,20.57
2023-04-13T09:52:04.184Z,20.60
2023-04-13T09:53:04.217Z,20.57
2023-04-13T09:54:04.232Z,20.61
2023-04-13T09:55:04.570Z,20.63
2023-04-13T09:56:04.290Z,20.57
2023-04-13T09:57:04.333Z,20.73
2023-04-13T09:58:04.362Z,20.71
2023-04-13T09:59:04.401Z,20.72
2023-04-13T10:00:04.741Z,20.69
2023-04-13T10:01:04.737Z,20.71
2023-04-13T10:03:04.554Z,20.73
2023-04-13T10:04:04.531Z,20.71
2023-04-13T10:05:04.663Z,20.76
2023-04-13T10:06:04.595Z,20.79
2023-04-13T10:08:04.653Z,20.87
2023-04-13T10:09:04.683Z,20.85
2023-04-13T10:10:04.722Z,20.91
2023-04-13T10:11:04.763Z,20.93
2023-04-13T10:12:04.767Z,20.91
2023-04-13T10:13:04.804Z,20.90
2023-04-13T10:14:05.131Z,20.83
2023-04-13T10:15:04.893Z,21.00
2023-04-13T10:16:05.015Z,20.94
2023-04-13T10:17:04.927Z,20.96
2023-04-13T10:18:05.009Z,21.00
2023-04-13T10:19:05.022Z,20.96
2023-04-13T10:20:05.049Z,21.03
2023-04-13T10:21:05.345Z,21.00
2023-04-13T10:22:06.414Z,20.96
2023-04-13T10:23:05.125Z,20.98
2023-04-13T10:25:05.158Z,20.94
2023-04-13T10:26:05.192Z,20.98
2023-04-13T10:28:05.546Z,20.96
2023-04-13T10:29:05.284Z,21.03
2023-04-13T10:33:05.750Z,21.06
2023-04-13T10:34:05.418Z,21.06
2023-04-13T10:35:05.760Z,21.08
2023-04-13T10:36:05.529Z,21.01
2023-04-13T10:37:05.516Z,21.03
2023-04-13T10:38:05.542Z,21.06
2023-04-13T10:39:05.573Z,21.18
2023-04-13T10:40:05.608Z,21.16
2023-04-13T10:41:07.759Z,21.16
2023-04-13T10:43:05.692Z,21.19
2023-04-13T10:44:05.737Z,21.16
2023-04-13T10:45:05.751Z,21.16
2023-04-13T10:46:05.792Z,21.22
2023-04-13T10:47:05.899Z,21.16
2023-04-13T10:48:05.904Z,21.11
2023-04-13T10:49:06.203Z,21.19
2023-04-13T10:50:05.904Z,21.09
2023-04-13T10:51:05.942Z,21.08
2023-04-13T10:52:05.959Z,21.11
2023-04-13T10:53:06.024Z,21.08
2023-04-13T10:54:06.082Z,21.09
2023-04-13T10:55:06.059Z,21.12
2023-04-13T10:56:06.382Z,21.09
2023-04-13T10:57:06.113Z,21.19
2023-04-13T10:58:06.136Z,21.13
2023-04-13T10:59:06.166Z,21.19
2023-04-13T11:00:06.207Z,21.11
2023-04-13T11:02:06.754Z,21.05
2023-04-13T11:03:06.566Z,21.03
2023-04-13T11:04:09.250Z,21.06
2023-04-13T11:05:06.412Z,21.00
2023-04-13T11:06:06.386Z,21.05
2023-04-13T11:07:06.409Z,21.01
2023-04-13T11:08:06.437Z,21.00
2023-04-13T11:09:07.747Z,21.00
2023-04-13T11:10:06.768Z,20.94
2023-04-13T11:11:06.537Z,20.98
2023-04-13T11:12:06.559Z,20.96
2023-04-13T11:13:06.592Z,20.91
2023-04-13T11:14:06.627Z,20.96
2023-04-13T11:15:06.972Z,20.96
2023-04-13T11:16:06.761Z,20.97
2023-04-13T11:18:06.838Z,20.96
2023-04-13T11:19:06.781Z,20.98
2023-04-13T11:20:06.798Z,21.00
2023-04-13T11:21:08.885Z,21.00
2023-04-13T11:22:13.174Z,20.91
2023-04-13T11:23:06.902Z,21.00
2023-04-13T11:24:06.920Z,20.94
2023-04-13T11:25:06.983Z,21.05
2023-04-13T11:26:06.983Z,20.98
2023-04-13T11:28:07.336Z,21.05
2023-04-13T11:29:07.070Z,21.05
2023-04-13T11:30:07.104Z,21.09
2023-04-13T11:31:07.129Z,21.03
2023-04-13T11:32:07.199Z,21.06
2023-04-13T11:33:07.241Z,21.05
2023-04-13T11:34:07.518Z,21.06
2023-04-13T11:35:07.291Z,21.09
2023-04-13T11:36:07.295Z,21.06
2023-04-13T11:37:07.331Z,21.03
2023-04-13T11:38:07.339Z,21.12
2023-04-13T11:39:09.012Z,21.06
2023-04-13T11:40:07.401Z,21.03
2023-04-13T11:41:15.736Z,21.03
2023-04-13T11:42:07.453Z,21.09
2023-04-13T11:43:07.485Z,21.00
2023-04-13T11:44:07.550Z,21.01
2023-04-13T11:45:07.550Z,20.98
2023-04-13T11:46:07.592Z,21.00
2023-04-13T11:47:07.899Z,20.98
2023-04-13T11:48:08.175Z,20.94
2023-04-13T11:49:07.659Z,20.94
2023-04-13T11:50:07.726Z,20.90
2023-04-13T11:51:07.840Z,20.94
2023-04-13T11:52:07.755Z,20.93
2023-04-13T11:53:07.824Z,21.01
2023-04-13T11:54:07.818Z,21.06
2023-04-13T11:55:21.623Z,20.93
2023-04-13T11:56:07.915Z,21.03
2023-04-13T11:57:07.910Z,21.00
2023-04-13T11:58:07.936Z,20.98
2023-04-13T11:59:07.963Z,20.97
2023-04-13T12:00:08.029Z,20.98
2023-04-13T12:01:13.834Z,21.01
2023-04-13T12:02:17.016Z,21.03
2023-04-13T12:04:14.647Z,21.05
2023-04-13T12:05:08.378Z,21.08
2023-04-13T12:06:08.386Z,21.01
2023-04-13T12:07:08.822Z,21.08
2023-04-13T12:08:08.625Z,21.12
2023-04-13T12:09:13.505Z,21.11
2023-04-13T12:11:38.967Z,21.21
2023-04-13T12:12:46.213Z,21.21
2023-04-13T12:13:18.421Z,21.11
2023-04-13T12:14:13.825Z,21.21
2023-04-13T12:15:23.052Z,21.15
2023-04-13T12:16:17.241Z,21.24
2023-04-13T12:17:34.368Z,21.24
2023-04-13T12:19:09.551Z,21.18
2023-04-13T12:20:10.048Z,21.27
2023-04-13T12:21:10.284Z,21.30
2023-04-13T12:22:09.740Z,21.30
2023-04-13T12:23:19.174Z,21.13
2023-04-13T12:24:08.737Z,21.27
2023-04-13T12:25:08.868Z,21.26
2023-04-13T12:26:40.723Z,21.33
2023-04-13T12:27:17.002Z,21.33
2023-04-13T12:28:08.834Z,21.27
2023-04-13T12:29:08.883Z,21.19
2023-04-13T12:30:09.293Z,21.31
2023-04-13T12:31:08.958Z,21.13
2023-04-13T12:32:08.953Z,21.31
2023-04-13T12:33:09.117Z,21.13
2023-04-13T12:34:09.012Z,21.34
2023-04-13T12:35:09.143Z,21.28
2023-04-13T12:36:09.071Z,21.24
2023-04-13T12:37:09.355Z,21.28
2023-04-13T12:38:09.135Z,21.27
2023-04-13T12:39:09.172Z,21.27
2023-04-13T12:40:09.244Z,21.22
2023-04-13T12:41:09.263Z,21.30
2023-04-13T12:42:09.255Z,21.33
2023-04-13T12:43:09.287Z,21.22
2023-04-13T12:44:09.681Z,21.36
2023-04-13T12:45:09.353Z,21.36
2023-04-13T12:46:09.371Z,21.36
2023-04-13T12:47:09.442Z,21.37
2023-04-13T12:48:09.601Z,21.37
2023-04-13T12:49:09.477Z,21.36
2023-04-13T12:50:09.654Z,21.37
2023-04-13T12:51:09.830Z,21.36
2023-04-13T12:52:09.561Z,21.31
2023-04-13T12:54:09.632Z,21.30
2023-04-13T12:55:09.948Z,21.33
2023-04-13T12:56:09.670Z,21.27
2023-04-13T12:57:09.731Z,21.24
2023-04-13T12:58:09.756Z,21.19
2023-04-13T12:59:09.768Z,21.34
2023-04-13T13:00:09.810Z,21.26
2023-04-13T13:01:09.887Z,21.24
2023-04-13T13:02:09.909Z,21.22
2023-04-13T13:03:14.662Z,21.18
2023-04-13T13:04:10.290Z,21.15
2023-04-13T13:05:09.952Z,21.21
2023-04-13T13:06:09.974Z,21.13
2023-04-13T13:07:10.011Z,21.13
2023-04-13T13:08:10.048Z,21.26
2023-04-13T13:09:10.065Z,21.13
2023-04-13T13:11:10.128Z,21.24
2023-04-13T13:12:10.154Z,21.22
2023-04-13T13:13:10.203Z,21.18
2023-04-13T13:14:11.255Z,21.26
2023-04-13T13:15:10.243Z,21.13
2023-04-13T13:17:10.636Z,21.12
2023-04-13T13:19:10.373Z,21.22
2023-04-13T13:20:10.401Z,21.21
2023-04-13T13:21:10.423Z,21.15
2023-04-13T13:22:10.468Z,21.13
2023-04-13T13:23:10.794Z,21.13
2023-04-13T13:24:10.528Z,21.22
2023-04-13T13:25:10.564Z,21.24
2023-04-13T13:27:37.575Z,21.15
2023-04-13T13:28:14.602Z,21.18
2023-04-13T13:29:10.714Z,21.26
2023-04-13T13:31:10.762Z,21.24
2023-04-13T13:32:10.852Z,21.27
2023-04-13T13:33:10.821Z,21.15
2023-04-13T13:34:10.830Z,21.27
2023-04-13T13:35:10.849Z,21.18
2023-04-13T13:36:10.984Z,21.21
2023-04-13T13:37:10.909Z,21.34
2023-04-13T13:38:10.938Z,21.33
2023-04-13T13:39:10.961Z,21.27
2023-04-13T13:40:11.002Z,21.38
2023-04-13T13:41:11.119Z,21.37
2023-04-13T13:42:11.395Z,21.36
2023-04-13T13:43:11.085Z,21.40
2023-04-13T13:44:11.174Z,21.40
2023-04-13T13:45:11.163Z,21.46
2023-04-13T13:46:11.253Z,21.36
2023-04-13T13:47:11.958Z,21.40
2023-04-13T13:48:11.235Z,21.31
2023-04-13T13:49:11.561Z,21.43
2023-04-13T13:50:11.305Z,21.37
2023-04-13T13:51:11.336Z,21.40
2023-04-13T13:52:11.364Z,21.43
2023-04-13T13:54:11.421Z,21.46
2023-04-13T13:55:11.454Z,21.43
2023-04-13T13:57:11.542Z,21.48